sensor_id;sensor_type;location;lat;lon;timestamp;pressure;altitude;pressure_sealevel;temperature;humidity
71970;BME280;59838;52.152;5.436;2023-08-21T00:00:42;102380.84;;;17.16;100.00
71970;BME280;59838;52.152;5.436;2023-08-21T00:03:09;102387.56;;;17.18;100.00
71970;BME280;59838;52.152;5.436;2023-08-21T00:05:36;102386.28;;;17.14;100.00
71970;BME280;59838;52.152;5.436;2023-08-21T00:08:02;102392.34;;;17.15;100.00
71970;BME280;59838;52.152;5.436;2023-08-21T00:10:30;102388.72;;;17.16;100.00
71970;BME280;59838;52.152;5.436;2023-08-21T00:12:56;102390.38;;;17.17;100.00
71970;BME280;59838;52.152;5.436;2023-08-21T00:15:23;102394.97;;;17.15;100.00
71970;BME280;59838;52.152;5.436;2023-08-21T00:17:49;102395.44;;;17.18;100.00
71970;BME280;59838;52.152;5.436;2023-08-21T00:20:16;102393.25;;;17.22;100.00
71970;BME280;59838;52.152;5.436;2023-08-21T00:22:42;102396.84;;;17.21;100.00
71970;BME280;59838;52.152;5.436;2023-08-21T00:25:09;102390.81;;;17.21;100.00
71970;BME280;59838;52.152;5.436;2023-08-21T00:27:35;102397.84;;;17.20;100.00
71970;BME280;59838;52.152;5.436;2023-08-21T00:30:02;102391.97;;;17.18;100.00
71970;BME280;59838;52.152;5.436;2023-08-21T00:32:29;102398.63;;;17.14;100.00
71970;BME280;59838;52.152;5.436;2023-08-21T00:34:55;102386.47;;;17.13;100.00
71970;BME280;59838;52.152;5.436;2023-08-21T00:37:22;102394.91;;;17.08;100.00
71970;BME280;59838;52.152;5.436;2023-08-21T00:39:48;102393.31;;;17.07;100.00
71970;BME280;59838;52.152;5.436;2023-08-21T00:42:15;102390.69;;;17.07;100.00
71970;BME280;59838;52.152;5.436;2023-08-21T00:44:41;102385.44;;;17.07;100.00
71970;BME280;59838;52.152;5.436;2023-08-21T00:47:07;102388.06;;;17.07;100.00
71970;BME280;59838;52.152;5.436;2023-08-21T00:49:34;102385.63;;;17.06;100.00
71970;BME280;59838;52.152;5.436;2023-08-21T00:52:01;102384.34;;;17.02;100.00
71970;BME280;59838;52.152;5.436;2023-08-21T00:54:28;102382.09;;;16.98;100.00
71970;BME280;59838;52.152;5.436;2023-08-21T00:56:55;102378.50;;;16.99;100.00
71970;BME280;59838;52.152;5.436;2023-08-21T00:59:22;102376.84;;;16.98;100.00
71970;BME280;59838;52.152;5.436;2023-08-21T01:01:48;102376.84;;;16.98;100.00
71970;BME280;59838;52.152;5.436;2023-08-21T01:04:15;102378.31;;;17.01;100.00
71970;BME280;59838;52.152;5.436;2023-08-21T01:06:42;102382.53;;;17.02;100.00
71970;BME280;59838;52.152;5.436;2023-08-21T01:09:14;102370.84;;;17.05;100.00
71970;BME280;59838;52.152;5.436;2023-08-21T01:11:55;102370.66;;;17.06;100.00
71970;BME280;59838;52.152;5.436;2023-08-21T01:14:29;102380.56;;;17.04;100.00
71970;BME280;59838;52.152;5.436;2023-08-21T01:17:00;102381.53;;;17.03;100.00
71970;BME280;59838;52.152;5.436;2023-08-21T01:19:40;102374.47;;;17.04;100.00
71970;BME280;59838;52.152;5.436;2023-08-21T01:22:07;102374.47;;;17.04;100.00
71970;BME280;59838;52.152;5.436;2023-08-21T01:24:34;102377.84;;;16.97;100.00
71970;BME280;59838;52.152;5.436;2023-08-21T01:27:01;102379.22;;;16.93;100.00
71970;BME280;59838;52.152;5.436;2023-08-21T01:29:28;102381.84;;;16.93;100.00
71970;BME280;59838;52.152;5.436;2023-08-21T01:32:07;102375.16;;;16.91;100.00
71970;BME280;59838;52.152;5.436;2023-08-21T01:34:37;102372.34;;;16.92;100.00
71970;BME280;59838;52.152;5.436;2023-08-21T01:37:06;102379.22;;;16.93;100.00
71970;BME280;59838;52.152;5.436;2023-08-21T01:39:33;102376.41;;;16.95;100.00
71970;BME280;59838;52.152;5.436;2023-08-21T01:42:00;102379.47;;;16.98;100.00
71970;BME280;59838;52.152;5.436;2023-08-21T01:44:28;102381.91;;;17.00;100.00
71970;BME280;59838;52.152;5.436;2023-08-21T01:46:55;102376.66;;;17.00;100.00
71970;BME280;59838;52.152;5.436;2023-08-21T01:49:21;102381.13;;;16.99;100.00
71970;BME280;59838;52.152;5.436;2023-08-21T01:51:48;102383.56;;;17.01;100.00
71970;BME280;59838;52.152;5.436;2023-08-21T01:54:15;102385.16;;;17.02;100.00
71970;BME280;59838;52.152;5.436;2023-08-21T01:56:42;102386.78;;;17.03;100.00
71970;BME280;59838;52.152;5.436;2023-08-21T01:59:08;102391.38;;;16.94;100.00
71970;BME280;59838;52.152;5.436;2023-08-21T02:01:35;102385.22;;;16.87;100.00
71970;BME280;59838;52.152;5.436;2023-08-21T02:04:01;102386.03;;;16.88;100.00
71970;BME280;59838;52.152;5.436;2023-08-21T02:06:28;102389.47;;;16.88;100.00
71970;BME280;59838;52.152;5.436;2023-08-21T02:08:55;102390.91;;;16.91;100.00
71970;BME280;59838;52.152;5.436;2023-08-21T02:11:21;102381.25;;;16.91;100.00
71970;BME280;59838;52.152;5.436;2023-08-21T02:13:48;102385.56;;;16.84;100.00
71970;BME280;59838;52.152;5.436;2023-08-21T02:16:14;102390.81;;;16.84;100.00
71970;BME280;59838;52.152;5.436;2023-08-21T02:18:41;102387.56;;;16.82;100.00
71970;BME280;59838;52.152;5.436;2023-08-21T02:21:07;102380.63;;;16.74;100.00
71970;BME280;59838;52.152;5.436;2023-08-21T02:23:34;102385.88;;;16.74;100.00
71970;BME280;59838;52.152;5.436;2023-08-21T02:26:00;102380.44;;;16.76;100.00
71970;BME280;59838;52.152;5.436;2023-08-21T02:28:27;102386.28;;;16.78;100.00
71970;BME280;59838;52.152;5.436;2023-08-21T02:30:53;102387.31;;;16.77;100.00
71970;BME280;59838;52.152;5.436;2023-08-21T02:33:20;102378.59;;;16.76;100.00
71970;BME280;59838;52.152;5.436;2023-08-21T02:35:47;102377.00;;;16.75;100.00
71970;BME280;59838;52.152;5.436;2023-08-21T02:38:13;102380.25;;;16.77;100.00
71970;BME280;59838;52.152;5.436;2023-08-21T02:40:39;102375.00;;;16.77;100.00
71970;BME280;59838;52.152;5.436;2023-08-21T02:43:06;102374.19;;;16.77;100.00
71970;BME280;59838;52.152;5.436;2023-08-21T02:45:32;102379.63;;;16.75;100.00
71970;BME280;59838;52.152;5.436;2023-08-21T02:47:59;102384.88;;;16.75;100.00
71970;BME280;59838;52.152;5.436;2023-08-21T02:50:26;102393.38;;;16.77;100.00
71970;BME280;59838;52.152;5.436;2023-08-21T02:52:52;102395.81;;;16.79;100.00
71970;BME280;59838;52.152;5.436;2023-08-21T02:55:19;102389.56;;;16.80;100.00
71970;BME280;59838;52.152;5.436;2023-08-21T02:57:46;102387.13;;;16.78;100.00
71970;BME280;59838;52.152;5.436;2023-08-21T03:00:13;102395.19;;;16.77;100.00
71970;BME280;59838;52.152;5.436;2023-08-21T03:02:39;102392.94;;;16.74;100.00
71970;BME280;59838;52.152;5.436;2023-08-21T03:05:10;102388.84;;;16.71;100.00
71970;BME280;59838;52.152;5.436;2023-08-21T03:07:37;102382.81;;;16.71;100.00
71970;BME280;59838;52.152;5.436;2023-08-21T03:10:04;102387.06;;;16.72;100.00
71970;BME280;59838;52.152;5.436;2023-08-21T03:12:31;102389.03;;;16.70;100.00
71970;BME280;59838;52.152;5.436;2023-08-21T03:14:57;102386.59;;;16.68;100.00
71970;BME280;59838;52.152;5.436;2023-08-21T03:17:24;102390.59;;;16.64;100.00
71970;BME280;59838;52.152;5.436;2023-08-21T03:19:50;102395.59;;;16.59;100.00
71970;BME280;59838;52.152;5.436;2023-08-21T03:22:17;102395.59;;;16.59;100.00
71970;BME280;59838;52.152;5.436;2023-08-21T03:24:43;102393.41;;;16.62;100.00
71970;BME280;59838;52.152;5.436;2023-08-21T03:27:10;102381.09;;;16.63;100.00
71970;BME280;59838;52.152;5.436;2023-08-21T03:29:36;102387.00;;;16.65;100.00
71970;BME280;59838;52.152;5.436;2023-08-21T03:32:03;102386.59;;;16.68;100.00
71970;BME280;59838;52.152;5.436;2023-08-21T03:34:29;102383.78;;;16.70;100.00
71970;BME280;59838;52.152;5.436;2023-08-21T03:36:56;102383.78;;;16.70;100.00
71970;BME280;59838;52.152;5.436;2023-08-21T03:39:22;102377.56;;;16.71;100.00
71970;BME280;59838;52.152;5.436;2023-08-21T03:41:49;102386.88;;;16.73;100.00
71970;BME280;59838;52.152;5.436;2023-08-21T03:44:15;102379.00;;;16.73;100.00
71970;BME280;59838;52.152;5.436;2023-08-21T03:46:42;102368.31;;;16.75;100.00
71970;BME280;59838;52.152;5.436;2023-08-21T03:49:08;102368.31;;;16.75;100.00
71970;BME280;59838;52.152;5.436;2023-08-21T03:51:35;102363.06;;;16.75;100.00
71970;BME280;59838;52.152;5.436;2023-08-21T03:54:01;102374.94;;;16.71;100.00
71970;BME280;59838;52.152;5.436;2023-08-21T03:56:27;102368.41;;;16.67;100.00
71970;BME280;59838;52.152;5.436;2023-08-21T03:58:54;102370.22;;;16.66;100.00
71970;BME280;59838;52.152;5.436;2023-08-21T04:01:20;102372.06;;;16.66;100.00
71970;BME280;59838;52.152;5.436;2023-08-21T04:03:47;102375.28;;;16.68;100.00
71970;BME280;59838;52.152;5.436;2023-08-21T04:06:13;102375.91;;;16.70;100.00
71970;BME280;59838;52.152;5.436;2023-08-21T04:08:40;102375.72;;;16.71;100.00
71970;BME280;59838;52.152;5.436;2023-08-21T04:11:07;102372.31;;;16.71;100.00
71970;BME280;59838;52.152;5.436;2023-08-21T04:13:33;102380.34;;;16.69;100.00
71970;BME280;59838;52.152;5.436;2023-08-21T04:16:00;102377.31;;;16.66;100.00
71970;BME280;59838;52.152;5.436;2023-08-21T04:18:26;102389.41;;;16.67;100.00
71970;BME280;59838;52.152;5.436;2023-08-21T04:21:07;102385.16;;;16.66;100.00
71970;BME280;59838;52.152;5.436;2023-08-21T04:23:34;102385.00;;;16.67;100.00
71970;BME280;59838;52.152;5.436;2023-08-21T04:26:02;102393.03;;;16.66;100.00
71970;BME280;59838;52.152;5.436;2023-08-21T04:28:30;102401.53;;;16.68;100.00
71970;BME280;59838;52.152;5.436;2023-08-21T04:30:57;102393.47;;;16.69;100.00
71970;BME280;59838;52.152;5.436;2023-08-21T04:33:25;102395.91;;;16.71;100.00
71970;BME280;59838;52.152;5.436;2023-08-21T04:35:52;102386.22;;;16.71;100.00
71970;BME280;59838;52.152;5.436;2023-08-21T04:38:18;102386.03;;;16.73;100.00
71970;BME280;59838;52.152;5.436;2023-08-21T04:40:45;102387.69;;;16.74;100.00
71970;BME280;59838;52.152;5.436;2023-08-21T04:43:11;102388.50;;;16.74;100.00
71970;BME280;59838;52.152;5.436;2023-08-21T04:45:38;102393.28;;;16.71;100.00
71970;BME280;59838;52.152;5.436;2023-08-21T04:48:05;102394.88;;;16.65;100.00
71970;BME280;59838;52.152;5.436;2023-08-21T04:50:31;102399.03;;;16.59;100.00
71970;BME280;59838;52.152;5.436;2023-08-21T04:52:58;102410.00;;;16.48;100.00
71970;BME280;59838;52.152;5.436;2023-08-21T04:55:24;102408.94;;;16.42;100.00
71970;BME280;59838;52.152;5.436;2023-08-21T04:57:51;102408.44;;;16.39;100.00
71970;BME280;59838;52.152;5.436;2023-08-21T05:00:17;102411.34;;;16.44;100.00
71970;BME280;59838;52.152;5.436;2023-08-21T05:02:43;102409.38;;;16.46;100.00
71970;BME280;59838;52.152;5.436;2023-08-21T05:05:10;102412.09;;;16.38;100.00
71970;BME280;59838;52.152;5.436;2023-08-21T05:07:37;102411.72;;;16.41;100.00
71970;BME280;59838;52.152;5.436;2023-08-21T05:10:03;102409.44;;;16.53;100.00
71970;BME280;59838;52.152;5.436;2023-08-21T05:12:30;102415.31;;;16.55;100.00
71970;BME280;59838;52.152;5.436;2023-08-21T05:14:57;102413.88;;;16.52;100.00
71970;BME280;59838;52.152;5.436;2023-08-21T05:17:24;102417.50;;;16.51;100.00
71970;BME280;59838;52.152;5.436;2023-08-21T05:19:51;102427.44;;;16.56;100.00
71970;BME280;59838;52.152;5.436;2023-08-21T05:22:18;102425.69;;;16.63;100.00
71970;BME280;59838;52.152;5.436;2023-08-21T05:24:44;102421.34;;;16.70;100.00
71970;BME280;59838;52.152;5.436;2023-08-21T05:27:11;102418.25;;;16.96;100.00
71970;BME280;59838;52.152;5.436;2023-08-21T05:29:37;102419.84;;;17.90;100.00
71970;BME280;59838;52.152;5.436;2023-08-21T05:32:04;102417.88;;;18.34;100.00
71970;BME280;59838;52.152;5.436;2023-08-21T05:34:31;102417.88;;;18.34;100.00
71970;BME280;59838;52.152;5.436;2023-08-21T05:36:58;102414.13;;;18.15;100.00
71970;BME280;59838;52.152;5.436;2023-08-21T05:39:24;102421.13;;;18.36;100.00
71970;BME280;59838;52.152;5.436;2023-08-21T05:41:51;102416.88;;;18.35;100.00
71970;BME280;59838;52.152;5.436;2023-08-21T05:44:17;102418.53;;;18.01;100.00
71970;BME280;59838;52.152;5.436;2023-08-21T05:46:44;102422.41;;;17.84;100.00
71970;BME280;59838;52.152;5.436;2023-08-21T05:49:10;102419.41;;;17.87;100.00
71970;BME280;59838;52.152;5.436;2023-08-21T05:51:37;102418.53;;;18.50;100.00
71970;BME280;59838;52.152;5.436;2023-08-21T05:54:03;102418.53;;;19.85;100.00
71970;BME280;59838;52.152;5.436;2023-08-21T05:56:30;102409.41;;;22.29;94.46
71970;BME280;59838;52.152;5.436;2023-08-21T05:58:56;102416.25;;;23.80;85.70
71970;BME280;59838;52.152;5.436;2023-08-21T06:01:23;102414.81;;;24.99;77.62
71970;BME280;59838;52.152;5.436;2023-08-21T06:03:49;102413.03;;;26.22;70.78
71970;BME280;59838;52.152;5.436;2023-08-21T06:06:16;102426.94;;;26.02;68.42
71970;BME280;59838;52.152;5.436;2023-08-21T06:08:42;102424.41;;;25.73;70.54
71970;BME280;59838;52.152;5.436;2023-08-21T06:11:09;102418.19;;;26.84;66.16
71970;BME280;59838;52.152;5.436;2023-08-21T06:13:35;102419.75;;;27.12;63.80
71970;BME280;59838;52.152;5.436;2023-08-21T06:16:02;102423.28;;;26.08;66.93
71970;BME280;59838;52.152;5.436;2023-08-21T06:18:29;102425.22;;;25.01;71.61
71970;BME280;59838;52.152;5.436;2023-08-21T06:20:55;102432.59;;;24.82;72.04
71970;BME280;59838;52.152;5.436;2023-08-21T06:23:22;102432.16;;;24.56;72.87
71970;BME280;59838;52.152;5.436;2023-08-21T06:25:49;102432.06;;;23.75;75.65
71970;BME280;59838;52.152;5.436;2023-08-21T06:28:15;102433.22;;;22.90;79.58
71970;BME280;59838;52.152;5.436;2023-08-21T06:30:42;102434.09;;;22.72;80.94
71970;BME280;59838;52.152;5.436;2023-08-21T06:33:09;102428.88;;;22.65;82.26
71970;BME280;59838;52.152;5.436;2023-08-21T06:35:36;102432.88;;;23.16;80.70
71970;BME280;59838;52.152;5.436;2023-08-21T06:38:03;102439.06;;;23.10;81.10
71970;BME280;59838;52.152;5.436;2023-08-21T06:40:30;102430.00;;;23.18;80.22
71970;BME280;59838;52.152;5.436;2023-08-21T06:42:56;102427.03;;;22.66;82.01
71970;BME280;59838;52.152;5.436;2023-08-21T06:45:23;102426.56;;;22.20;84.09
71970;BME280;59838;52.152;5.436;2023-08-21T06:47:49;102432.31;;;21.98;86.93
71970;BME280;59838;52.152;5.436;2023-08-21T06:50:17;102438.16;;;22.74;87.24
71970;BME280;59838;52.152;5.436;2023-08-21T06:52:43;102426.13;;;24.78;79.16
71970;BME280;59838;52.152;5.436;2023-08-21T06:55:10;102427.13;;;26.18;70.66
71970;BME280;59838;52.152;5.436;2023-08-21T06:57:36;102426.78;;;27.28;65.86
71970;BME280;59838;52.152;5.436;2023-08-21T07:00:05;102426.94;;;26.24;67.27
71970;BME280;59838;52.152;5.436;2023-08-21T07:02:32;102431.88;;;25.04;68.00
71970;BME280;59838;52.152;5.436;2023-08-21T07:04:58;102436.66;;;24.44;70.62
71970;BME280;59838;52.152;5.436;2023-08-21T07:07:25;102442.66;;;24.51;67.16
71970;BME280;59838;52.152;5.436;2023-08-21T07:09:51;102436.66;;;24.44;69.44
71970;BME280;59838;52.152;5.436;2023-08-21T07:12:18;102434.06;;;25.07;68.57
71970;BME280;59838;52.152;5.436;2023-08-21T07:14:44;102426.19;;;26.07;66.50
71970;BME280;59838;52.152;5.436;2023-08-21T07:17:11;102426.44;;;26.82;62.49
71970;BME280;59838;52.152;5.436;2023-08-21T07:19:37;102435.19;;;27.10;60.38
71970;BME280;59838;52.152;5.436;2023-08-21T07:22:03;102437.66;;;27.16;58.88
71970;BME280;59838;52.152;5.436;2023-08-21T07:24:30;102438.25;;;26.37;60.37
71970;BME280;59838;52.152;5.436;2023-08-21T07:26:57;102441.03;;;25.42;63.11
71970;BME280;59838;52.152;5.436;2023-08-21T07:29:23;102437.41;;;25.31;63.22
71970;BME280;59838;52.152;5.436;2023-08-21T07:31:50;102429.53;;;25.97;62.24
71970;BME280;59838;52.152;5.436;2023-08-21T07:34:16;102440.66;;;25.94;60.07
71970;BME280;59838;52.152;5.436;2023-08-21T07:36:43;102444.06;;;25.67;61.79
71970;BME280;59838;52.152;5.436;2023-08-21T07:39:09;102437.13;;;25.88;61.38
71970;BME280;59838;52.152;5.436;2023-08-21T07:41:37;102442.06;;;26.46;60.54
71970;BME280;59838;52.152;5.436;2023-08-21T07:44:03;102435.41;;;25.99;60.21
71970;BME280;59838;52.152;5.436;2023-08-21T07:46:30;102434.28;;;26.94;59.07
71970;BME280;59838;52.152;5.436;2023-08-21T07:48:56;102439.19;;;27.93;55.67
71970;BME280;59838;52.152;5.436;2023-08-21T07:51:23;102445.56;;;27.86;53.91
71970;BME280;59838;52.152;5.436;2023-08-21T07:53:49;102440.16;;;28.50;53.80
71970;BME280;59838;52.152;5.436;2023-08-21T07:56:16;102444.16;;;28.32;52.91
71970;BME280;59838;52.152;5.436;2023-08-21T07:58:42;102447.13;;;27.82;55.98
71970;BME280;59838;52.152;5.436;2023-08-21T08:01:08;102443.97;;;27.05;55.41
71970;BME280;59838;52.152;5.436;2023-08-21T08:03:35;102446.13;;;26.76;55.68
71970;BME280;59838;52.152;5.436;2023-08-21T08:06:02;102449.81;;;26.48;56.49
71970;BME280;59838;52.152;5.436;2023-08-21T08:08:28;102453.03;;;26.00;56.63
71970;BME280;59838;52.152;5.436;2023-08-21T08:10:55;102445.94;;;25.72;57.72
71970;BME280;59838;52.152;5.436;2023-08-21T08:13:22;102450.19;;;25.51;58.33
71970;BME280;59838;52.152;5.436;2023-08-21T08:15:48;102453.19;;;25.38;59.51
71970;BME280;59838;52.152;5.436;2023-08-21T08:18:15;102448.97;;;25.25;60.01
71970;BME280;59838;52.152;5.436;2023-08-21T08:20:42;102462.22;;;25.36;61.64
71970;BME280;59838;52.152;5.436;2023-08-21T08:23:08;102463.59;;;25.56;59.31
71970;BME280;59838;52.152;5.436;2023-08-21T08:25:35;102452.28;;;25.66;59.29
71970;BME280;59838;52.152;5.436;2023-08-21T08:28:02;102463.41;;;25.46;61.63
71970;BME280;59838;52.152;5.436;2023-08-21T08:30:29;102451.97;;;25.28;62.78
71970;BME280;59838;52.152;5.436;2023-08-21T08:32:55;102445.22;;;25.38;60.03
71970;BME280;59838;52.152;5.436;2023-08-21T08:35:22;102443.59;;;25.53;59.68
71970;BME280;59838;52.152;5.436;2023-08-21T08:37:48;102443.88;;;25.74;59.42
71970;BME280;59838;52.152;5.436;2023-08-21T08:40:15;102444.53;;;25.64;60.17
71970;BME280;59838;52.152;5.436;2023-08-21T08:42:41;102454.47;;;25.91;59.00
71970;BME280;59838;52.152;5.436;2023-08-21T08:45:08;102450.00;;;25.75;59.33
71970;BME280;59838;52.152;5.436;2023-08-21T08:47:40;102455.88;;;25.77;58.98
71970;BME280;59838;52.152;5.436;2023-08-21T08:50:08;102467.41;;;25.65;61.05
71970;BME280;59838;52.152;5.436;2023-08-21T08:52:37;102455.84;;;25.94;60.40
71970;BME280;59838;52.152;5.436;2023-08-21T08:55:06;102458.75;;;25.92;58.47
71970;BME280;59838;52.152;5.436;2023-08-21T08:57:35;102454.44;;;26.08;58.31
71970;BME280;59838;52.152;5.436;2023-08-21T09:00:03;102446.63;;;26.23;57.94
71970;BME280;59838;52.152;5.436;2023-08-21T09:02:31;102448.09;;;26.36;59.46
71970;BME280;59838;52.152;5.436;2023-08-21T09:04:57;102441.03;;;26.47;58.33
71970;BME280;59838;52.152;5.436;2023-08-21T09:07:24;102443.25;;;26.55;57.98
71970;BME280;59838;52.152;5.436;2023-08-21T09:09:51;102437.97;;;26.60;55.91
71970;BME280;59838;52.152;5.436;2023-08-21T09:12:19;102439.81;;;26.60;58.36
71970;BME280;59838;52.152;5.436;2023-08-21T09:14:47;102441.88;;;26.53;56.23
71970;BME280;59838;52.152;5.436;2023-08-21T09:17:14;102433.50;;;26.66;58.25
71970;BME280;59838;52.152;5.436;2023-08-21T09:19:42;102434.59;;;26.70;56.91
71970;BME280;59838;52.152;5.436;2023-08-21T09:22:14;102441.91;;;26.80;57.57
71970;BME280;59838;52.152;5.436;2023-08-21T09:25:08;102438.50;;;26.90;58.21
71970;BME280;59838;52.152;5.436;2023-08-21T09:27:38;102440.25;;;27.06;59.22
71970;BME280;59838;52.152;5.436;2023-08-21T09:30:09;102446.94;;;27.09;57.75
71970;BME280;59838;52.152;5.436;2023-08-21T09:32:54;102443.19;;;27.10;54.92
71970;BME280;59838;52.152;5.436;2023-08-21T09:35:22;102435.09;;;26.94;55.21
71970;BME280;59838;52.152;5.436;2023-08-21T09:37:49;102431.41;;;27.00;55.89
71970;BME280;59838;52.152;5.436;2023-08-21T09:40:20;102431.09;;;26.97;55.67
71970;BME280;59838;52.152;5.436;2023-08-21T09:42:55;102435.19;;;27.10;56.19
71970;BME280;59838;52.152;5.436;2023-08-21T09:45:26;102430.06;;;27.03;55.59
71970;BME280;59838;52.152;5.436;2023-08-21T09:47:54;102425.38;;;27.15;54.84
71970;BME280;59838;52.152;5.436;2023-08-21T09:50:21;102430.56;;;27.32;53.55
71970;BME280;59838;52.152;5.436;2023-08-21T09:52:48;102428.25;;;27.41;52.70
71970;BME280;59838;52.152;5.436;2023-08-21T09:55:16;102424.56;;;27.47;54.20
71970;BME280;59838;52.152;5.436;2023-08-21T09:57:44;102411.16;;;27.42;52.09
71970;BME280;59838;52.152;5.436;2023-08-21T10:00:11;102414.41;;;27.49;52.63
71970;BME280;59838;52.152;5.436;2023-08-21T10:02:42;102416.47;;;27.37;54.17
71970;BME280;59838;52.152;5.436;2023-08-21T10:05:13;102412.50;;;27.40;54.25
71970;BME280;59838;52.152;5.436;2023-08-21T10:07:41;102413.41;;;27.61;52.44
71970;BME280;59838;52.152;5.436;2023-08-21T10:10:09;102407.69;;;27.42;50.42
71970;BME280;59838;52.152;5.436;2023-08-21T10:12:37;102403.25;;;27.58;51.50
71970;BME280;59838;52.152;5.436;2023-08-21T10:15:04;102406.25;;;27.71;51.36
71970;BME280;59838;52.152;5.436;2023-08-21T10:17:31;102402.72;;;27.18;52.45
71970;BME280;59838;52.152;5.436;2023-08-21T10:20:03;102400.78;;;27.08;52.53
71970;BME280;59838;52.152;5.436;2023-08-21T10:22:43;102402.50;;;27.25;54.27
71970;BME280;59838;52.152;5.436;2023-08-21T10:25:20;102405.72;;;27.27;50.30
71970;BME280;59838;52.152;5.436;2023-08-21T10:27:50;102407.19;;;27.07;51.41
71970;BME280;59838;52.152;5.436;2023-08-21T10:30:25;102404.28;;;27.14;50.61
71970;BME280;59838;52.152;5.436;2023-08-21T10:32:54;102403.03;;;27.27;52.75
71970;BME280;59838;52.152;5.436;2023-08-21T10:35:23;102414.19;;;27.18;51.56
71970;BME280;59838;52.152;5.436;2023-08-21T10:38:16;102413.44;;;26.86;53.73
71970;BME280;59838;52.152;5.436;2023-08-21T10:41:06;102408.09;;;26.86;54.27
71970;BME280;59838;52.152;5.436;2023-08-21T10:43:51;102409.59;;;27.09;54.76
71970;BME280;59838;52.152;5.436;2023-08-21T10:46:17;102410.38;;;27.09;54.53
71970;BME280;59838;52.152;5.436;2023-08-21T10:48:44;102417.41;;;27.21;53.90
71970;BME280;59838;52.152;5.436;2023-08-21T10:51:10;102408.47;;;27.42;53.11
71970;BME280;59838;52.152;5.436;2023-08-21T10:53:39;102409.19;;;27.70;51.35
71970;BME280;59838;52.152;5.436;2023-08-21T10:56:07;102408.69;;;27.83;50.71
71970;BME280;59838;52.152;5.436;2023-08-21T10:58:35;102409.47;;;27.79;49.30
71970;BME280;59838;52.152;5.436;2023-08-21T11:01:04;102402.78;;;27.76;48.78
71970;BME280;59838;52.152;5.436;2023-08-21T11:03:30;102402.81;;;27.81;51.72
71970;BME280;59838;52.152;5.436;2023-08-21T11:06:04;102392.78;;;28.09;50.35
71970;BME280;59838;52.152;5.436;2023-08-21T11:08:35;102399.75;;;28.25;47.74
71970;BME280;59838;52.152;5.436;2023-08-21T11:11:03;102395.72;;;28.18;47.91
71970;BME280;59838;52.152;5.436;2023-08-21T11:13:30;102396.31;;;28.30;48.00
71970;BME280;59838;52.152;5.436;2023-08-21T11:16:01;102401.91;;;28.44;48.44
71970;BME280;59838;52.152;5.436;2023-08-21T11:18:33;102396.63;;;28.65;45.96
71970;BME280;59838;52.152;5.436;2023-08-21T11:21:09;102389.38;;;28.50;46.53
71970;BME280;59838;52.152;5.436;2023-08-21T11:23:38;102399.25;;;28.49;49.56
71970;BME280;59838;52.152;5.436;2023-08-21T11:26:05;102399.81;;;28.56;47.27
71970;BME280;59838;52.152;5.436;2023-08-21T11:28:46;102392.84;;;28.45;47.79
71970;BME280;59838;52.152;5.436;2023-08-21T11:31:14;102392.84;;;28.55;45.88
71970;BME280;59838;52.152;5.436;2023-08-21T11:33:40;102401.13;;;28.54;44.96
71970;BME280;59838;52.152;5.436;2023-08-21T11:36:07;102388.06;;;28.78;46.02
71970;BME280;59838;52.152;5.436;2023-08-21T11:38:33;102390.75;;;28.88;47.56
71970;BME280;59838;52.152;5.436;2023-08-21T11:41:01;102392.03;;;29.11;47.58
71970;BME280;59838;52.152;5.436;2023-08-21T11:46:03;102390.72;;;29.19;45.97
71970;BME280;59838;52.152;5.436;2023-08-21T11:48:30;102387.25;;;28.77;47.04
71970;BME280;59838;52.152;5.436;2023-08-21T11:50:57;102394.47;;;28.46;47.80
71970;BME280;59838;52.152;5.436;2023-08-21T11:53:37;102386.41;;;28.36;48.43
71970;BME280;59838;52.152;5.436;2023-08-21T11:56:12;102385.63;;;28.30;46.41
71970;BME280;59838;52.152;5.436;2023-08-21T11:58:40;102378.94;;;28.43;46.97
71970;BME280;59838;52.152;5.436;2023-08-21T12:01:07;102377.66;;;28.61;45.59
71970;BME280;59838;52.152;5.436;2023-08-21T12:03:37;102375.19;;;28.44;47.43
71970;BME280;59838;52.152;5.436;2023-08-21T12:06:09;102376.47;;;28.05;47.19
71970;BME280;59838;52.152;5.436;2023-08-21T12:08:36;102379.34;;;27.88;50.22
71970;BME280;59838;52.152;5.436;2023-08-21T12:11:03;102380.38;;;27.87;50.02
71970;BME280;59838;52.152;5.436;2023-08-21T12:13:30;102371.34;;;27.94;49.04
71970;BME280;59838;52.152;5.436;2023-08-21T12:16:00;102381.41;;;27.76;48.60
71970;BME280;59838;52.152;5.436;2023-08-21T12:18:27;102380.34;;;27.72;48.74
71970;BME280;59838;52.152;5.436;2023-08-21T12:20:54;102371.94;;;28.11;46.63
71970;BME280;59838;52.152;5.436;2023-08-21T12:23:20;102368.75;;;28.19;49.11
71970;BME280;59838;52.152;5.436;2023-08-21T12:25:47;102364.50;;;28.44;46.70
71970;BME280;59838;52.152;5.436;2023-08-21T12:28:13;102358.91;;;28.76;48.30
71970;BME280;59838;52.152;5.436;2023-08-21T12:30:40;102362.34;;;28.97;47.13
71970;BME280;59838;52.152;5.436;2023-08-21T12:33:06;102365.03;;;29.08;42.19
71970;BME280;59838;52.152;5.436;2023-08-21T12:35:47;102360.75;;;29.02;45.09
71970;BME280;59838;52.152;5.436;2023-08-21T12:38:14;102362.06;;;29.14;44.84
71970;BME280;59838;52.152;5.436;2023-08-21T12:40:40;102364.69;;;29.40;45.45
71970;BME280;59838;52.152;5.436;2023-08-21T12:43:07;102353.09;;;29.60;46.77
71970;BME280;59838;52.152;5.436;2023-08-21T12:45:36;102354.44;;;29.58;45.16
71970;BME280;59838;52.152;5.436;2023-08-21T12:48:03;102353.59;;;29.72;46.18
71970;BME280;59838;52.152;5.436;2023-08-21T12:50:30;102346.66;;;29.66;43.46